sensor_id;sensor_type;location;lat;lon;timestamp;pressure;altitude;pressure_sealevel;temperature;humidity
44825;BME280;30542;47.928;2.138;2022-11-15T00:03:13;99958.28;;;19.06;57.83
44825;BME280;30542;47.928;2.138;2022-11-15T00:08:14;99952.41;;;19.04;58.04
44825;BME280;30542;47.928;2.138;2022-11-15T00:13:14;99941.72;;;19.04;57.80
44825;BME280;30542;47.928;2.138;2022-11-15T00:18:15;99943.84;;;19.02;57.63
44825;BME280;30542;47.928;2.138;2022-11-15T00:23:16;99935.31;;;19.00;57.86
44825;BME280;30542;47.928;2.138;2022-11-15T00:28:16;99937.72;;;19.01;57.60
44825;BME280;30542;47.928;2.138;2022-11-15T00:33:17;99914.75;;;18.95;57.80
44825;BME280;30542;47.928;2.138;2022-11-15T00:38:18;99892.88;;;18.83;57.88
44825;BME280;30542;47.928;2.138;2022-11-15T00:43:18;99905.41;;;18.98;57.63
44825;BME280;30542;47.928;2.138;2022-11-15T00:48:18;99904.06;;;18.95;57.97
44825;BME280;30542;47.928;2.138;2022-11-15T00:53:19;99895.81;;;18.97;57.36
44825;BME280;30542;47.928;2.138;2022-11-15T00:58:19;99875.53;;;18.91;57.48
44825;BME280;30542;47.928;2.138;2022-11-15T01:03:20;99882.19;;;18.93;57.82
44825;BME280;30542;47.928;2.138;2022-11-15T01:08:20;99866.47;;;18.92;57.96
44825;BME280;30542;47.928;2.138;2022-11-15T01:13:20;99863.25;;;18.90;57.67
44825;BME280;30542;47.928;2.138;2022-11-15T01:18:21;99848.59;;;18.92;57.33
44825;BME280;30542;47.928;2.138;2022-11-15T01:23:21;99846.72;;;18.87;57.48
44825;BME280;30542;47.928;2.138;2022-11-15T01:28:21;99835.78;;;18.84;57.61
44825;BME280;30542;47.928;2.138;2022-11-15T01:33:22;99828.84;;;18.83;57.46
44825;BME280;30542;47.928;2.138;2022-11-15T01:38:23;99830.97;;;18.86;57.52
44825;BME280;30542;47.928;2.138;2022-11-15T01:43:27;99810.97;;;18.83;57.91
44825;BME280;30542;47.928;2.138;2022-11-15T01:48:32;99808.31;;;18.83;57.71
44825;BME280;30542;47.928;2.138;2022-11-15T01:53:33;99794.69;;;18.80;57.46
44825;BME280;30542;47.928;2.138;2022-11-15T01:58:36;99780.53;;;18.74;57.66
44825;BME280;30542;47.928;2.138;2022-11-15T02:03:52;99774.94;;;18.76;57.68
44825;BME280;30542;47.928;2.138;2022-11-15T02:08:56;99770.13;;;18.78;57.70
44825;BME280;30542;47.928;2.138;2022-11-15T02:13:58;99748.53;;;18.74;57.39
44825;BME280;30542;47.928;2.138;2022-11-15T02:40:12;99699.19;;;18.72;57.88
44825;BME280;30542;47.928;2.138;2022-11-15T02:45:26;99690.66;;;18.75;57.47
44825;BME280;30542;47.928;2.138;2022-11-15T02:50:29;99686.09;;;18.70;57.34
44825;BME280;30542;47.928;2.138;2022-11-15T02:55:35;99673.03;;;18.69;57.85
44825;BME280;30542;47.928;2.138;2022-11-15T03:00:43;99664.22;;;18.68;57.53
44825;BME280;30542;47.928;2.138;2022-11-15T03:11:07;99688.50;;;18.67;57.46
44825;BME280;30542;47.928;2.138;2022-11-15T03:16:09;99675.97;;;18.67;57.67
44825;BME280;30542;47.928;2.138;2022-11-15T03:21:13;99678.88;;;18.66;57.50
44825;BME280;30542;47.928;2.138;2022-11-15T03:26:17;99658.66;;;18.59;57.54
44825;BME280;30542;47.928;2.138;2022-11-15T03:31:21;99659.69;;;18.63;57.55
44825;BME280;30542;47.928;2.138;2022-11-15T03:36:42;99650.91;;;18.63;57.62
44825;BME280;30542;47.928;2.138;2022-11-15T03:52:17;99621.06;;;18.51;57.76
44825;BME280;30542;47.928;2.138;2022-11-15T03:57:18;99623.69;;;18.61;57.37
44825;BME280;30542;47.928;2.138;2022-11-15T04:02:19;99617.84;;;18.59;57.59
44825;BME280;30542;47.928;2.138;2022-11-15T04:07:20;99612.50;;;18.59;57.50
44825;BME280;30542;47.928;2.138;2022-11-15T04:12:20;99603.41;;;18.65;57.11
44825;BME280;30542;47.928;2.138;2022-11-15T04:17:30;99599.94;;;18.64;57.46
44825;BME280;30542;47.928;2.138;2022-11-15T04:22:30;99587.13;;;18.77;57.19
44825;BME280;30542;47.928;2.138;2022-11-15T04:27:49;99577.69;;;18.95;56.68
44825;BME280;30542;47.928;2.138;2022-11-15T04:32:50;99574.16;;;19.09;56.16
44825;BME280;30542;47.928;2.138;2022-11-15T04:37:50;99570.38;;;19.16;55.94
44825;BME280;30542;47.928;2.138;2022-11-15T04:42:51;99572.75;;;19.22;56.04
44825;BME280;30542;47.928;2.138;2022-11-15T04:47:51;99563.66;;;19.23;56.03
44825;BME280;30542;47.928;2.138;2022-11-15T04:52:53;99551.66;;;19.26;55.69
44825;BME280;30542;47.928;2.138;2022-11-15T04:57:58;99552.16;;;19.28;55.63
44825;BME280;30542;47.928;2.138;2022-11-15T05:02:59;99546.25;;;19.31;55.88
44825;BME280;30542;47.928;2.138;2022-11-15T05:08:17;99528.38;;;19.31;55.58
44825;BME280;30542;47.928;2.138;2022-11-15T05:13:18;99528.06;;;19.38;55.55
44825;BME280;30542;47.928;2.138;2022-11-15T05:18:18;99528.06;;;19.38;55.93
44825;BME280;30542;47.928;2.138;2022-11-15T05:23:19;99512.28;;;19.42;55.87
44825;BME280;30542;47.928;2.138;2022-11-15T05:28:19;99513.34;;;19.41;55.71
44825;BME280;30542;47.928;2.138;2022-11-15T05:33:19;99506.69;;;19.38;55.79
44825;BME280;30542;47.928;2.138;2022-11-15T05:38:20;99506.16;;;19.41;55.28
44825;BME280;30542;47.928;2.138;2022-11-15T05:43:21;99514.91;;;19.47;55.88
44825;BME280;30542;47.928;2.138;2022-11-15T05:48:22;99517.28;;;19.48;55.85
44825;BME280;30542;47.928;2.138;2022-11-15T05:53:23;99500.97;;;19.55;55.62
44825;BME280;30542;47.928;2.138;2022-11-15T05:58:24;99495.38;;;19.51;55.42
44825;BME280;30542;47.928;2.138;2022-11-15T06:03:25;99480.44;;;19.50;55.98
44825;BME280;30542;47.928;2.138;2022-11-15T06:08:25;99490.50;;;19.58;54.94
44825;BME280;30542;47.928;2.138;2022-11-15T06:13:26;99480.91;;;19.57;55.91
44825;BME280;30542;47.928;2.138;2022-11-15T06:18:26;99481.97;;;19.56;56.07
44825;BME280;30542;47.928;2.138;2022-11-15T06:23:27;99474.47;;;19.58;56.35
44825;BME280;30542;47.928;2.138;2022-11-15T06:28:29;99474.75;;;19.57;56.00
44825;BME280;30542;47.928;2.138;2022-11-15T06:33:29;99474.19;;;19.60;56.35
44825;BME280;30542;47.928;2.138;2022-11-15T06:38:30;99444.31;;;19.58;56.47
44825;BME280;30542;47.928;2.138;2022-11-15T06:43:31;99439.19;;;19.61;56.15
44825;BME280;30542;47.928;2.138;2022-11-15T06:48:32;99427.47;;;19.63;56.03
44825;BME280;30542;47.928;2.138;2022-11-15T06:53:34;99424.22;;;19.60;56.00
44825;BME280;30542;47.928;2.138;2022-11-15T06:58:35;99430.41;;;19.61;56.40
44825;BME280;30542;47.928;2.138;2022-11-15T07:03:37;99432.53;;;19.59;56.27
44825;BME280;30542;47.928;2.138;2022-11-15T07:08:38;99432.84;;;19.57;57.07
44825;BME280;30542;47.928;2.138;2022-11-15T07:13:39;99436.28;;;19.58;57.59
44825;BME280;30542;47.928;2.138;2022-11-15T07:18:39;99433.84;;;19.67;57.38
44825;BME280;30542;47.928;2.138;2022-11-15T07:23:40;99438.31;;;19.71;57.52
44825;BME280;30542;47.928;2.138;2022-11-15T07:28:40;99427.91;;;19.70;58.22
44825;BME280;30542;47.928;2.138;2022-11-15T07:33:40;99425.75;;;19.72;57.85
44825;BME280;30542;47.928;2.138;2022-11-15T07:38:41;99418.81;;;19.71;57.71
44825;BME280;30542;47.928;2.138;2022-11-15T07:43:42;99409.72;;;19.72;57.77
44825;BME280;30542;47.928;2.138;2022-11-15T07:48:42;99400.13;;;19.71;57.86
44825;BME280;30542;47.928;2.138;2022-11-15T07:53:43;99397.47;;;19.71;58.02
44825;BME280;30542;47.928;2.138;2022-11-15T07:58:45;99388.91;;;19.69;57.79
44825;BME280;30542;47.928;2.138;2022-11-15T08:03:46;99375.78;;;19.72;58.11
44825;BME280;30542;47.928;2.138;2022-11-15T08:08:46;99393.13;;;19.75;57.61
44825;BME280;30542;47.928;2.138;2022-11-15T08:13:47;99363.16;;;19.78;57.78
44825;BME280;30542;47.928;2.138;2022-11-15T08:18:47;99354.25;;;19.64;57.56
44825;BME280;30542;47.928;2.138;2022-11-15T08:23:48;99353.16;;;19.65;57.61
44825;BME280;30542;47.928;2.138;2022-11-15T08:28:48;99351.69;;;19.77;57.40
44825;BME280;30542;47.928;2.138;2022-11-15T08:33:48;99344.25;;;19.74;57.59
44825;BME280;30542;47.928;2.138;2022-11-15T08:38:49;99341.28;;;19.76;57.22
44825;BME280;30542;47.928;2.138;2022-11-15T08:43:49;99342.06;;;19.76;57.38
44825;BME280;30542;47.928;2.138;2022-11-15T08:48:50;99311.63;;;19.53;57.48
44825;BME280;30542;47.928;2.138;2022-11-15T08:53:50;99338.09;;;19.74;57.14
44825;BME280;30542;47.928;2.138;2022-11-15T08:58:50;99332.75;;;19.74;57.31
44825;BME280;30542;47.928;2.138;2022-11-15T09:03:51;99326.03;;;19.76;57.15
44825;BME280;30542;47.928;2.138;2022-11-15T09:08:51;99321.78;;;19.75;57.31
44825;BME280;30542;47.928;2.138;2022-11-15T09:13:52;99319.13;;;19.75;57.10
44825;BME280;30542;47.928;2.138;2022-11-15T09:18:53;99310.31;;;19.75;57.13
44825;BME280;30542;47.928;2.138;2022-11-15T09:23:54;99318.31;;;19.75;57.12
44825;BME280;30542;47.928;2.138;2022-11-15T09:28:54;99314.88;;;19.74;56.85
44825;BME280;30542;47.928;2.138;2022-11-15T09:33:55;99304.97;;;19.75;56.88
44825;BME280;30542;47.928;2.138;2022-11-15T09:38:57;99299.63;;;19.75;56.95
44825;BME280;30542;47.928;2.138;2022-11-15T09:49:31;99284.66;;;19.74;56.87
44825;BME280;30542;47.928;2.138;2022-11-15T09:54:34;99288.94;;;19.75;56.79
44825;BME280;30542;47.928;2.138;2022-11-15T10:04:53;99286.25;;;19.75;56.91
44825;BME280;30542;47.928;2.138;2022-11-15T10:15:03;99277.16;;;19.76;57.09
44825;BME280;30542;47.928;2.138;2022-11-15T10:30:35;99270.25;;;19.75;56.95
44825;BME280;30542;47.928;2.138;2022-11-15T10:35:36;99255.78;;;19.76;56.81
44825;BME280;30542;47.928;2.138;2022-11-15T10:40:38;99255.00;;;19.75;56.92
44825;BME280;30542;47.928;2.138;2022-11-15T10:45:39;99243.53;;;19.75;56.69
44825;BME280;30542;47.928;2.138;2022-11-15T10:50:45;99234.41;;;19.76;56.85
44825;BME280;30542;47.928;2.138;2022-11-15T10:55:47;99224.81;;;19.75;56.78
44825;BME280;30542;47.928;2.138;2022-11-15T11:00:48;99210.94;;;19.73;56.78
44825;BME280;30542;47.928;2.138;2022-11-15T11:06:03;99193.56;;;19.75;56.79
44825;BME280;30542;47.928;2.138;2022-11-15T11:11:05;99167.69;;;19.71;56.63
44825;BME280;30542;47.928;2.138;2022-11-15T11:16:24;99169.50;;;19.75;56.70
44825;BME280;30542;47.928;2.138;2022-11-15T11:43:21;99126.47;;;19.77;56.73
44825;BME280;30542;47.928;2.138;2022-11-15T11:48:43;99120.00;;;19.78;56.71
44825;BME280;30542;47.928;2.138;2022-11-15T11:54:11;99114.69;;;19.78;56.69
44825;BME280;30542;47.928;2.138;2022-11-15T11:59:29;99113.88;;;19.77;56.73
44825;BME280;30542;47.928;2.138;2022-11-15T12:04:40;99105.59;;;19.79;56.69
44825;BME280;30542;47.928;2.138;2022-11-15T12:09:46;99104.81;;;19.78;56.81
44825;BME280;30542;47.928;2.138;2022-11-15T12:14:55;99101.03;;;19.79;56.74
44825;BME280;30542;47.928;2.138;2022-11-15T12:19:57;99085.91;;;19.75;56.80
44825;BME280;30542;47.928;2.138;2022-11-15T12:25:02;99085.00;;;19.79;56.91
44825;BME280;30542;47.928;2.138;2022-11-15T12:30:12;99085.00;;;19.79;56.91
44825;BME280;30542;47.928;2.138;2022-11-15T12:35:37;99076.22;;;19.79;56.90
44825;BME280;30542;47.928;2.138;2022-11-15T12:41:15;99066.59;;;19.78;57.00
44825;BME280;30542;47.928;2.138;2022-11-15T12:46:19;99058.28;;;19.79;56.83
44825;BME280;30542;47.928;2.138;2022-11-15T12:56:42;99020.09;;;19.79;56.88
44825;BME280;30542;47.928;2.138;2022-11-15T13:11:53;99000.97;;;19.72;56.86
44825;BME280;30542;47.928;2.138;2022-11-15T13:17:00;98998.13;;;19.82;56.56
44825;BME280;30542;47.928;2.138;2022-11-15T13:22:04;98989.03;;;19.83;56.74
44825;BME280;30542;47.928;2.138;2022-11-15T13:27:24;98963.00;;;19.75;56.56
44825;BME280;30542;47.928;2.138;2022-11-15T13:32:25;98966.56;;;19.84;56.72
44825;BME280;30542;47.928;2.138;2022-11-15T13:42:28;98952.69;;;19.82;56.67
44825;BME280;30542;47.928;2.138;2022-11-15T13:47:29;98958.56;;;19.84;56.45
44825;BME280;30542;47.928;2.138;2022-11-15T13:52:35;98930.75;;;19.71;56.51
44825;BME280;30542;47.928;2.138;2022-11-15T13:57:52;98931.03;;;19.83;56.54
44825;BME280;30542;47.928;2.138;2022-11-15T14:02:54;98915.00;;;19.83;56.69
44825;BME280;30542;47.928;2.138;2022-11-15T14:08:00;98925.69;;;19.83;56.65
44825;BME280;30542;47.928;2.138;2022-11-15T14:13:03;98927.28;;;19.84;56.33
44825;BME280;30542;47.928;2.138;2022-11-15T14:18:05;98921.94;;;19.84;56.37
44825;BME280;30542;47.928;2.138;2022-11-15T14:23:23;98918.47;;;19.84;56.58
44825;BME280;30542;47.928;2.138;2022-11-15T14:38:29;98871.16;;;19.84;56.39
44825;BME280;30542;47.928;2.138;2022-11-15T14:43:29;98856.22;;;19.83;56.43
44825;BME280;30542;47.928;2.138;2022-11-15T14:48:30;98853.25;;;19.85;56.34
44825;BME280;30542;47.928;2.138;2022-11-15T14:53:30;98844.44;;;19.84;56.32
44825;BME280;30542;47.928;2.138;2022-11-15T14:58:31;98853.25;;;19.85;56.47
44825;BME280;30542;47.928;2.138;2022-11-15T15:03:31;98854.81;;;19.86;56.24
44825;BME280;30542;47.928;2.138;2022-11-15T15:08:31;98855.94;;;19.85;56.01
44825;BME280;30542;47.928;2.138;2022-11-15T15:13:32;98854.03;;;19.85;56.18
44825;BME280;30542;47.928;2.138;2022-11-15T15:18:32;98845.25;;;19.85;56.44
44825;BME280;30542;47.928;2.138;2022-11-15T15:23:33;98827.81;;;19.74;56.13
44825;BME280;30542;47.928;2.138;2022-11-15T15:28:35;98831.88;;;19.85;56.17
44825;BME280;30542;47.928;2.138;2022-11-15T15:33:36;98839.91;;;19.85;56.08
44825;BME280;30542;47.928;2.138;2022-11-15T15:38:37;98831.88;;;19.85;56.30
44825;BME280;30542;47.928;2.138;2022-11-15T15:43:37;98837.22;;;19.85;56.33
44825;BME280;30542;47.928;2.138;2022-11-15T15:48:39;98826.34;;;19.81;56.01
44825;BME280;30542;47.928;2.138;2022-11-15T15:53:39;98827.31;;;19.85;56.02
44825;BME280;30542;47.928;2.138;2022-11-15T15:58:40;98816.63;;;19.85;56.00
44825;BME280;30542;47.928;2.138;2022-11-15T16:03:40;98809.41;;;19.86;56.02
44825;BME280;30542;47.928;2.138;2022-11-15T16:08:40;98803.28;;;19.85;56.03
44825;BME280;30542;47.928;2.138;2022-11-15T16:13:41;98797.16;;;19.85;56.10
44825;BME280;30542;47.928;2.138;2022-11-15T16:18:41;98788.03;;;19.86;56.13
44825;BME280;30542;47.928;2.138;2022-11-15T16:23:41;98785.34;;;19.86;56.05
44825;BME280;30542;47.928;2.138;2022-11-15T16:28:42;98781.91;;;19.85;55.99
44825;BME280;30542;47.928;2.138;2022-11-15T16:33:42;98778.44;;;19.85;56.06
44825;BME280;30542;47.928;2.138;2022-11-15T16:38:42;98774.66;;;19.86;55.93
44825;BME280;30542;47.928;2.138;2022-11-15T16:43:46;98742.44;;;19.69;56.15
44825;BME280;30542;47.928;2.138;2022-11-15T16:48:47;98773.88;;;19.85;56.00
44825;BME280;30542;47.928;2.138;2022-11-15T16:53:48;98771.22;;;19.85;56.22
44825;BME280;30542;47.928;2.138;2022-11-15T16:58:49;98781.63;;;19.87;55.97
44825;BME280;30542;47.928;2.138;2022-11-15T17:03:49;98778.53;;;19.94;55.58
44825;BME280;30542;47.928;2.138;2022-11-15T17:08:50;98775.66;;;19.90;55.40
44825;BME280;30542;47.928;2.138;2022-11-15T17:13:56;98769.53;;;19.90;55.41
44825;BME280;30542;47.928;2.138;2022-11-15T17:18:57;98762.28;;;19.90;55.53
44825;BME280;30542;47.928;2.138;2022-11-15T17:23:58;98767.63;;;19.90;55.77
44825;BME280;30542;47.928;2.138;2022-11-15T17:28:59;98779.63;;;19.93;55.85
44825;BME280;30542;47.928;2.138;2022-11-15T17:34:01;98779.03;;;19.96;55.85
44825;BME280;30542;47.928;2.138;2022-11-15T17:39:03;98785.63;;;19.98;56.22
44825;BME280;30542;47.928;2.138;2022-11-15T17:44:04;98772.19;;;20.03;56.18
44825;BME280;30542;47.928;2.138;2022-11-15T17:49:04;98757.44;;;19.92;56.15
44825;BME280;30542;47.928;2.138;2022-11-15T17:54:04;98772.47;;;20.02;56.58
44825;BME280;30542;47.928;2.138;2022-11-15T17:59:05;98760.97;;;20.01;56.51
44825;BME280;30542;47.928;2.138;2022-11-15T18:04:07;98763.53;;;20.06;56.71
44825;BME280;30542;47.928;2.138;2022-11-15T18:09:08;98781.19;;;20.07;56.60
44825;BME280;30542;47.928;2.138;2022-11-15T18:14:13;98812.94;;;20.09;57.03
44825;BME280;30542;47.928;2.138;2022-11-15T18:19:13;98809.94;;;20.10;56.92
44825;BME280;30542;47.928;2.138;2022-11-15T18:24:14;98811.84;;;20.10;57.24
44825;BME280;30542;47.928;2.138;2022-11-15T18:29:14;98814.03;;;20.08;57.44
44825;BME280;30542;47.928;2.138;2022-11-15T18:34:15;98813.25;;;20.07;57.70
44825;BME280;30542;47.928;2.138;2022-11-15T18:39:16;98823.13;;;20.07;57.85
44825;BME280;30542;47.928;2.138;2022-11-15T18:44:17;98830.16;;;20.03;58.07
44825;BME280;30542;47.928;2.138;2022-11-15T18:49:18;98831.06;;;19.98;58.22
44825;BME280;30542;47.928;2.138;2022-11-15T18:54:19;98825.53;;;19.95;58.18
44825;BME280;30542;47.928;2.138;2022-11-15T18:59:19;98857.41;;;19.91;58.41
44825;BME280;30542;47.928;2.138;2022-11-15T19:04:20;98849.09;;;19.93;58.36
44825;BME280;30542;47.928;2.138;2022-11-15T19:09:21;98817.84;;;19.79;58.48
44825;BME280;30542;47.928;2.138;2022-11-15T19:14:26;98803.69;;;19.79;58.64
44825;BME280;30542;47.928;2.138;2022-11-15T19:19:27;98831.78;;;19.76;58.71
44825;BME280;30542;47.928;2.138;2022-11-15T19:24:27;98830.81;;;19.72;58.73
44825;BME280;30542;47.928;2.138;2022-11-15T19:29:29;98861.56;;;19.70;58.89
44825;BME280;30542;47.928;2.138;2022-11-15T19:34:29;98846.94;;;19.67;58.81
44825;BME280;30542;47.928;2.138;2022-11-15T19:39:29;98859.78;;;19.65;58.78
44825;BME280;30542;47.928;2.138;2022-11-15T19:44:30;98839.38;;;19.55;58.91
44825;BME280;30542;47.928;2.138;2022-11-15T19:49:30;98848.91;;;19.61;58.88
44825;BME280;30542;47.928;2.138;2022-11-15T19:54:31;98833.47;;;19.58;58.74
44825;BME280;30542;47.928;2.138;2022-11-15T19:59:31;98819.38;;;19.53;58.64
44825;BME280;30542;47.928;2.138;2022-11-15T20:04:31;98839.19;;;19.52;59.07
44825;BME280;30542;47.928;2.138;2022-11-15T20:09:32;98838.38;;;19.51;58.78
44825;BME280;30542;47.928;2.138;2022-11-15T20:14:32;98842.94;;;19.51;59.04
44825;BME280;30542;47.928;2.138;2022-11-15T20:19:32;98865.19;;;19.46;59.02
44825;BME280;30542;47.928;2.138;2022-11-15T20:24:33;98872.69;;;19.44;59.14
44825;BME280;30542;47.928;2.138;2022-11-15T20:29:34;98873.00;;;19.43;58.88
44825;BME280;30542;47.928;2.138;2022-11-15T20:34:34;98874.38;;;19.40;58.85
44825;BME280;30542;47.928;2.138;2022-11-15T20:39:35;98908.59;;;19.38;59.47
44825;BME280;30542;47.928;2.138;2022-11-15T20:44:35;98897.19;;;19.32;58.95
44825;BME280;30542;47.928;2.138;2022-11-15T20:49:35;98895.34;;;19.33;59.21
44825;BME280;30542;47.928;2.138;2022-11-15T20:54:36;98905.50;;;19.31;58.79
44825;BME280;30542;47.928;2.138;2022-11-15T20:59:36;98919.16;;;19.29;58.90
44825;BME280;30542;47.928;2.138;2022-11-15T21:04:36;98924.78;;;19.28;59.11
44825;BME280;30542;47.928;2.138;2022-11-15T21:09:37;98914.19;;;19.23;58.79
44825;BME280;30542;47.928;2.138;2022-11-15T21:14:55;98932.38;;;19.21;59.15
44825;BME280;30542;47.928;2.138;2022-11-15T21:19:56;98920.09;;;19.20;58.94
44825;BME280;30542;47.928;2.138;2022-11-15T21:24:56;98924.66;;;19.19;59.20
44825;BME280;30542;47.928;2.138;2022-11-15T21:29:58;98928.94;;;19.20;58.69
44825;BME280;30542;47.928;2.138;2022-11-15T21:34:58;98948.19;;;19.17;58.80
44825;BME280;30542;47.928;2.138;2022-11-15T21:39:59;98945.00;;;19.15;59.03
44825;BME280;30542;47.928;2.138;2022-11-15T21:44:59;98947.41;;;19.17;58.87
44825;BME280;30542;47.928;2.138;2022-11-15T21:49:59;98955.19;;;19.13;58.84
44825;BME280;30542;47.928;2.138;2022-11-15T21:55:00;98965.88;;;19.13;58.55
44825;BME280;30542;47.928;2.138;2022-11-15T22:00:00;98964.00;;;19.13;58.54
44825;BME280;30542;47.928;2.138;2022-11-15T22:05:19;98958.94;;;19.12;58.71
44825;BME280;30542;47.928;2.138;2022-11-15T22:10:19;98962.69;;;19.11;58.47
44825;BME280;30542;47.928;2.138;2022-11-15T22:15:19;98950.44;;;19.10;58.70
44825;BME280;30542;47.928;2.138;2022-11-15T22:20:20;98946.44;;;19.07;58.94
44825;BME280;30542;47.928;2.138;2022-11-15T22:25:21;98966.22;;;19.06;58.85
44825;BME280;30542;47.928;2.138;2022-11-15T22:30:22;98971.56;;;19.06;58.45
44825;BME280;30542;47.928;2.138;2022-11-15T22:35:23;98980.09;;;19.08;58.86
44825;BME280;30542;47.928;2.138;2022-11-15T22:40:23;98990.81;;;19.03;58.87
44825;BME280;30542;47.928;2.138;2022-11-15T22:45:24;98985.22;;;19.05;58.65
44825;BME280;30542;47.928;2.138;2022-11-15T22:50:24;98986.56;;;19.02;58.55
44825;BME280;30542;47.928;2.138;2022-11-15T22:55:25;98986.88;;;19.01;58.56
44825;BME280;30542;47.928;2.138;2022-11-15T23:00:25;98979.66;;;19.01;58.58
44825;BME280;30542;47.928;2.138;2022-11-15T23:05:25;98975.97;;;18.97;58.30
44825;BME280;30542;47.928;2.138;2022-11-15T23:10:26;98974.09;;;18.98;58.39
44825;BME280;30542;47.928;2.138;2022-11-15T23:15:47;98976.28;;;18.96;58.22
44825;BME280;30542;47.928;2.138;2022-11-15T23:21:12;98965.78;;;18.99;58.04
44825;BME280;30542;47.928;2.138;2022-11-15T23:26:13;98966.16;;;18.93;58.49
44825;BME280;30542;47.928;2.138;2022-11-15T23:31:13;98969.28;;;19.00;58.55
44825;BME280;30542;47.928;2.138;2022-11-15T23:36:32;98971.94;;;19.00;58.26
44825;BME280;30542;47.928;2.138;2022-11-15T23:41:33;98976.63;;;18.89;58.43
44825;BME280;30542;47.928;2.138;2022-11-15T23:46:33;98990.47;;;18.91;58.27
44825;BME280;30542;47.928;2.138;2022-11-15T23:51:34;98987.28;;;18.89;58.28
44825;BME280;30542;47.928;2.138;2022-11-15T23:56:34;98987.28;;;18.89;58.30
